sensor_id;sensor_type;location;lat;lon;timestamp;pressure;altitude;pressure_sealevel;temperature;humidity
6938;BME280;40040;42.706;23.372;2023-07-24T00:00:44;149664.91;;;22.26;89.60
6938;BME280;40040;42.706;23.372;2023-07-24T00:03:11;149652.47;;;22.21;89.58
6938;BME280;40040;42.706;23.372;2023-07-24T00:05:38;149637.56;;;22.15;90.09
6938;BME280;40040;42.706;23.372;2023-07-24T00:08:04;149641.28;;;22.17;90.06
6938;BME280;40040;42.706;23.372;2023-07-24T00:10:33;149642.56;;;22.17;89.37
6938;BME280;40040;42.706;23.372;2023-07-24T00:13:01;149647.50;;;22.19;88.61
6938;BME280;40040;42.706;23.372;2023-07-24T00:15:28;149650.00;;;22.20;88.54
6938;BME280;40040;42.706;23.372;2023-07-24T00:17:55;149650.00;;;22.20;88.20
6938;BME280;40040;42.706;23.372;2023-07-24T00:20:22;149645.03;;;22.18;87.93
6938;BME280;40040;42.706;23.372;2023-07-24T00:22:50;149637.56;;;22.15;87.77
6938;BME280;40040;42.706;23.372;2023-07-24T00:25:17;149627.59;;;22.11;87.44
6938;BME280;40040;42.706;23.372;2023-07-24T00:27:45;149613.91;;;22.06;87.93
6938;BME280;40040;42.706;23.372;2023-07-24T00:30:12;149611.44;;;22.05;87.77
6938;BME280;40040;42.706;23.372;2023-07-24T00:32:39;149617.63;;;22.07;87.62
6938;BME280;40040;42.706;23.372;2023-07-24T00:35:07;149605.19;;;22.02;87.26
6938;BME280;40040;42.706;23.372;2023-07-24T00:37:34;149575.34;;;21.90;87.55
6938;BME280;40040;42.706;23.372;2023-07-24T00:40:01;149602.72;;;22.01;87.38
6938;BME280;40040;42.706;23.372;2023-07-24T00:42:28;149569.16;;;21.88;87.75
6938;BME280;40040;42.706;23.372;2023-07-24T00:44:56;149590.28;;;21.96;88.02
6938;BME280;40040;42.706;23.372;2023-07-24T00:47:23;149590.28;;;21.96;88.05
6938;BME280;40040;42.706;23.372;2023-07-24T00:49:51;149579.06;;;21.92;87.97
6938;BME280;40040;42.706;23.372;2023-07-24T00:52:18;149575.34;;;21.90;88.08
6938;BME280;40040;42.706;23.372;2023-07-24T00:54:45;149557.94;;;21.83;87.81
6938;BME280;40040;42.706;23.372;2023-07-24T00:57:13;149559.19;;;21.84;87.18
6938;BME280;40040;42.706;23.372;2023-07-24T00:59:40;149562.91;;;21.85;86.54
6938;BME280;40040;42.706;23.372;2023-07-24T01:02:09;149564.16;;;21.86;86.64
6938;BME280;40040;42.706;23.372;2023-07-24T01:04:37;149562.91;;;21.85;86.41
6938;BME280;40040;42.706;23.372;2023-07-24T01:07:04;149552.94;;;21.81;85.19
6938;BME280;40040;42.706;23.372;2023-07-24T01:09:31;149533.00;;;21.73;85.35
6938;BME280;40040;42.706;23.372;2023-07-24T01:12:03;149529.28;;;21.72;85.55
6938;BME280;40040;42.706;23.372;2023-07-24T01:14:36;149520.59;;;21.68;86.56
6938;BME280;40040;42.706;23.372;2023-07-24T01:17:07;149504.44;;;21.62;86.88
6938;BME280;40040;42.706;23.372;2023-07-24T01:19:39;149480.78;;;21.52;88.13
6938;BME280;40040;42.706;23.372;2023-07-24T01:22:15;149462.09;;;21.45;88.63
6938;BME280;40040;42.706;23.372;2023-07-24T01:25:03;149453.41;;;21.41;89.12
6938;BME280;40040;42.706;23.372;2023-07-24T01:27:33;149450.94;;;21.40;89.04
6938;BME280;40040;42.706;23.372;2023-07-24T01:30:00;149450.94;;;21.40;89.46
6938;BME280;40040;42.706;23.372;2023-07-24T01:32:27;149438.50;;;21.35;90.02
6938;BME280;40040;42.706;23.372;2023-07-24T01:34:54;149433.53;;;21.33;90.52
6938;BME280;40040;42.706;23.372;2023-07-24T01:37:22;149418.56;;;21.27;90.89
6938;BME280;40040;42.706;23.372;2023-07-24T01:39:50;149406.16;;;21.22;90.95
6938;BME280;40040;42.706;23.372;2023-07-24T01:42:17;149408.66;;;21.23;90.96
6938;BME280;40040;42.706;23.372;2023-07-24T01:44:51;149411.13;;;21.24;90.75
6938;BME280;40040;42.706;23.372;2023-07-24T01:47:17;149388.75;;;21.15;91.27
6938;BME280;40040;42.706;23.372;2023-07-24T01:49:44;149393.72;;;21.17;91.09
6938;BME280;40040;42.706;23.372;2023-07-24T01:52:11;149381.28;;;21.12;92.18
6938;BME280;40040;42.706;23.372;2023-07-24T01:54:38;149371.34;;;21.08;92.20
6938;BME280;40040;42.706;23.372;2023-07-24T01:57:05;149352.72;;;21.00;91.57
6938;BME280;40040;42.706;23.372;2023-07-24T01:59:32;149357.69;;;21.02;92.17
6938;BME280;40040;42.706;23.372;2023-07-24T02:02:00;149353.91;;;21.01;92.73
6938;BME280;40040;42.706;23.372;2023-07-24T02:04:27;149353.91;;;21.01;92.62
6938;BME280;40040;42.706;23.372;2023-07-24T02:06:53;149347.75;;;20.98;92.87
6938;BME280;40040;42.706;23.372;2023-07-24T02:09:20;149341.44;;;20.96;93.09
6938;BME280;40040;42.706;23.372;2023-07-24T02:11:47;149330.28;;;20.91;93.62
6938;BME280;40040;42.706;23.372;2023-07-24T02:14:14;149320.31;;;20.87;94.04
6938;BME280;40040;42.706;23.372;2023-07-24T02:16:42;149310.41;;;20.83;94.26
6938;BME280;40040;42.706;23.372;2023-07-24T02:19:10;149319.13;;;20.87;93.48
6938;BME280;40040;42.706;23.372;2023-07-24T02:21:37;149329.03;;;20.91;93.39
6938;BME280;40040;42.706;23.372;2023-07-24T02:24:06;149331.53;;;20.92;93.23
6938;BME280;40040;42.706;23.372;2023-07-24T02:26:32;149326.56;;;20.90;93.28
6938;BME280;40040;42.706;23.372;2023-07-24T02:28:59;149331.53;;;20.92;93.13
6938;BME280;40040;42.706;23.372;2023-07-24T02:31:26;149335.25;;;20.93;93.03
6938;BME280;40040;42.706;23.372;2023-07-24T02:33:53;149329.03;;;20.91;93.00
6938;BME280;40040;42.706;23.372;2023-07-24T02:36:21;149325.31;;;20.89;93.60
6938;BME280;40040;42.706;23.372;2023-07-24T02:38:48;149312.88;;;20.84;93.55
6938;BME280;40040;42.706;23.372;2023-07-24T02:41:14;149294.22;;;20.77;94.15
6938;BME280;40040;42.706;23.372;2023-07-24T02:43:41;149296.72;;;20.78;93.38
6938;BME280;40040;42.706;23.372;2023-07-24T02:46:08;149296.72;;;20.78;93.49
6938;BME280;40040;42.706;23.372;2023-07-24T02:48:35;149291.75;;;20.76;93.46
6938;BME280;40040;42.706;23.372;2023-07-24T02:51:01;149278.06;;;20.70;93.96
6938;BME280;40040;42.706;23.372;2023-07-24T02:53:30;149261.91;;;20.64;94.69
6938;BME280;40040;42.706;23.372;2023-07-24T02:55:56;149225.88;;;20.49;94.20
6938;BME280;40040;42.706;23.372;2023-07-24T02:58:23;149248.25;;;20.58;94.74
6938;BME280;40040;42.706;23.372;2023-07-24T03:00:50;149237.06;;;20.54;95.25
6938;BME280;40040;42.706;23.372;2023-07-24T03:03:17;149230.84;;;20.51;95.76
6938;BME280;40040;42.706;23.372;2023-07-24T03:05:43;149217.16;;;20.46;96.57
6938;BME280;40040;42.706;23.372;2023-07-24T03:08:10;149222.13;;;20.48;96.10
6938;BME280;40040;42.706;23.372;2023-07-24T03:10:41;149212.19;;;20.44;96.08
6938;BME280;40040;42.706;23.372;2023-07-24T03:13:08;149222.13;;;20.48;95.76
6938;BME280;40040;42.706;23.372;2023-07-24T03:15:34;149227.13;;;20.50;96.03
6938;BME280;40040;42.706;23.372;2023-07-24T03:18:01;149217.16;;;20.46;96.02
6938;BME280;40040;42.706;23.372;2023-07-24T03:20:28;149196.03;;;20.37;96.37
6938;BME280;40040;42.706;23.372;2023-07-24T03:22:55;149212.19;;;20.44;97.21
6938;BME280;40040;42.706;23.372;2023-07-24T03:25:21;149203.47;;;20.40;97.34
6938;BME280;40040;42.706;23.372;2023-07-24T03:27:50;149202.28;;;20.40;97.31
6938;BME280;40040;42.706;23.372;2023-07-24T03:30:17;149197.28;;;20.38;97.13
6938;BME280;40040;42.706;23.372;2023-07-24T03:32:43;149187.34;;;20.34;97.29
6938;BME280;40040;42.706;23.372;2023-07-24T03:35:10;149184.88;;;20.33;97.59
6938;BME280;40040;42.706;23.372;2023-07-24T03:37:37;149184.88;;;20.33;97.67
6938;BME280;40040;42.706;23.372;2023-07-24T03:40:04;149194.78;;;20.37;97.77
6938;BME280;40040;42.706;23.372;2023-07-24T03:42:31;149182.38;;;20.32;97.54
6938;BME280;40040;42.706;23.372;2023-07-24T03:44:59;149198.50;;;20.38;97.51
6938;BME280;40040;42.706;23.372;2023-07-24T03:47:26;149201.00;;;20.39;97.52
6938;BME280;40040;42.706;23.372;2023-07-24T03:49:53;149201.00;;;20.39;97.61
6938;BME280;40040;42.706;23.372;2023-07-24T03:52:20;149197.28;;;20.38;97.97
6938;BME280;40040;42.706;23.372;2023-07-24T03:54:47;149162.50;;;20.24;98.01
6938;BME280;40040;42.706;23.372;2023-07-24T03:57:14;149206.00;;;20.41;97.86
6938;BME280;40040;42.706;23.372;2023-07-24T03:59:40;149214.69;;;20.45;97.82
6938;BME280;40040;42.706;23.372;2023-07-24T04:02:08;149204.75;;;20.41;98.00
6938;BME280;40040;42.706;23.372;2023-07-24T04:04:36;149178.66;;;20.30;99.59
6938;BME280;40040;42.706;23.372;2023-07-24T04:07:03;149091.59;;;19.95;100.00
6938;BME280;40040;42.706;23.372;2023-07-24T04:09:30;149040.69;;;19.74;100.00
6938;BME280;40040;42.706;23.372;2023-07-24T04:11:57;148955.00;;;19.40;100.00
6938;BME280;40040;42.706;23.372;2023-07-24T04:14:24;148901.53;;;19.18;100.00
6938;BME280;40040;42.706;23.372;2023-07-24T04:16:51;148853.16;;;18.98;100.00
6938;BME280;40040;42.706;23.372;2023-07-24T04:19:19;148877.97;;;19.08;100.00
6938;BME280;40040;42.706;23.372;2023-07-24T04:21:46;148880.44;;;19.09;100.00
6938;BME280;40040;42.706;23.372;2023-07-24T04:24:12;148869.28;;;19.05;100.00
6938;BME280;40040;42.706;23.372;2023-07-24T04:26:39;148879.19;;;19.09;100.00
6938;BME280;40040;42.706;23.372;2023-07-24T04:29:06;148865.56;;;19.03;100.00
6938;BME280;40040;42.706;23.372;2023-07-24T04:31:33;148881.69;;;19.10;100.00
6938;BME280;40040;42.706;23.372;2023-07-24T04:34:00;148899.06;;;19.17;100.00
6938;BME280;40040;42.706;23.372;2023-07-24T04:36:28;148899.06;;;19.17;100.00
6938;BME280;40040;42.706;23.372;2023-07-24T04:38:55;148913.94;;;19.23;100.00
6938;BME280;40040;42.706;23.372;2023-07-24T04:41:22;148928.88;;;19.29;100.00
6938;BME280;40040;42.706;23.372;2023-07-24T04:43:49;148928.88;;;19.29;100.00
6938;BME280;40040;42.706;23.372;2023-07-24T04:46:15;148948.75;;;19.37;100.00
6938;BME280;40040;42.706;23.372;2023-07-24T04:48:42;148987.25;;;19.53;100.00
6938;BME280;40040;42.706;23.372;2023-07-24T04:51:09;149034.47;;;19.72;100.00
6938;BME280;40040;42.706;23.372;2023-07-24T04:53:37;149079.19;;;19.90;100.00
6938;BME280;40040;42.706;23.372;2023-07-24T04:56:04;149106.53;;;20.01;100.00
6938;BME280;40040;42.706;23.372;2023-07-24T04:58:31;149125.16;;;20.08;100.00
6938;BME280;40040;42.706;23.372;2023-07-24T05:01:02;149125.16;;;20.08;100.00
6938;BME280;40040;42.706;23.372;2023-07-24T05:03:29;149203.47;;;20.40;100.00
6938;BME280;40040;42.706;23.372;2023-07-24T05:05:56;149224.59;;;20.49;100.00
6938;BME280;40040;42.706;23.372;2023-07-24T05:08:22;149234.56;;;20.53;100.00
6938;BME280;40040;42.706;23.372;2023-07-24T05:10:54;149259.41;;;20.63;100.00
6938;BME280;40040;42.706;23.372;2023-07-24T05:13:21;149279.31;;;20.71;98.48
6938;BME280;40040;42.706;23.372;2023-07-24T05:15:48;149326.56;;;20.90;97.42
6938;BME280;40040;42.706;23.372;2023-07-24T05:18:15;149334.00;;;20.93;96.64
6938;BME280;40040;42.706;23.372;2023-07-24T05:20:45;149331.53;;;20.92;96.85
6938;BME280;40040;42.706;23.372;2023-07-24T05:23:12;149340.25;;;20.95;97.57
6938;BME280;40040;42.706;23.372;2023-07-24T05:25:40;149363.88;;;21.05;95.91
6938;BME280;40040;42.706;23.372;2023-07-24T05:28:09;149427.28;;;21.31;93.89
6938;BME280;40040;42.706;23.372;2023-07-24T05:30:36;149435.97;;;21.34;95.16
6938;BME280;40040;42.706;23.372;2023-07-24T05:33:03;149482.03;;;21.53;93.48
6938;BME280;40040;42.706;23.372;2023-07-24T05:35:30;149500.66;;;21.60;91.89
6938;BME280;40040;42.706;23.372;2023-07-24T05:37:56;149490.75;;;21.56;91.72
6938;BME280;40040;42.706;23.372;2023-07-24T05:40:23;149500.66;;;21.60;91.13
6938;BME280;40040;42.706;23.372;2023-07-24T05:42:50;149485.75;;;21.54;92.13
6938;BME280;40040;42.706;23.372;2023-07-24T05:45:18;149514.34;;;21.66;89.17
6938;BME280;40040;42.706;23.372;2023-07-24T05:47:45;149544.25;;;21.78;88.31
6938;BME280;40040;42.706;23.372;2023-07-24T05:50:12;149586.56;;;21.95;86.25
6938;BME280;40040;42.706;23.372;2023-07-24T05:52:39;149635.06;;;22.14;85.74
6938;BME280;40040;42.706;23.372;2023-07-24T05:55:08;149714.72;;;22.47;83.32
6938;BME280;40040;42.706;23.372;2023-07-24T05:57:36;149815.59;;;22.87;82.08
6938;BME280;40040;42.706;23.372;2023-07-24T06:00:03;149898.97;;;23.21;80.20
6938;BME280;40040;42.706;23.372;2023-07-24T06:02:32;149978.72;;;23.53;76.27
6938;BME280;40040;42.706;23.372;2023-07-24T06:04:59;150055.94;;;23.84;73.63
6938;BME280;40040;42.706;23.372;2023-07-24T06:07:26;150103.31;;;24.03;72.35
6938;BME280;40040;42.706;23.372;2023-07-24T06:09:53;150150.66;;;24.22;72.31
6938;BME280;40040;42.706;23.372;2023-07-24T06:12:19;150230.41;;;24.55;70.04
6938;BME280;40040;42.706;23.372;2023-07-24T06:14:46;150317.66;;;24.90;68.31
6938;BME280;40040;42.706;23.372;2023-07-24T06:17:13;150392.47;;;25.20;67.39
6938;BME280;40040;42.706;23.372;2023-07-24T06:19:41;150457.34;;;25.46;66.65
6938;BME280;40040;42.706;23.372;2023-07-24T06:22:08;150479.81;;;25.55;65.39
6938;BME280;40040;42.706;23.372;2023-07-24T06:24:35;150530.91;;;25.76;64.10
6938;BME280;40040;42.706;23.372;2023-07-24T06:27:02;150608.28;;;26.07;63.51
6938;BME280;40040;42.706;23.372;2023-07-24T06:29:28;150679.41;;;26.35;62.45
6938;BME280;40040;42.706;23.372;2023-07-24T06:31:55;150761.81;;;26.69;61.04
6938;BME280;40040;42.706;23.372;2023-07-24T06:34:22;150784.28;;;26.78;60.84
6938;BME280;40040;42.706;23.372;2023-07-24T06:36:50;150846.66;;;27.03;59.23
6938;BME280;40040;42.706;23.372;2023-07-24T06:39:17;150901.59;;;27.25;58.28
6938;BME280;40040;42.706;23.372;2023-07-24T06:41:44;150979.03;;;27.56;57.66
6938;BME280;40040;42.706;23.372;2023-07-24T06:44:11;151062.66;;;27.90;56.67
6938;BME280;40040;42.706;23.372;2023-07-24T06:46:38;151126.44;;;28.15;54.49
6938;BME280;40040;42.706;23.372;2023-07-24T06:49:04;151166.41;;;28.31;54.23
6938;BME280;40040;42.706;23.372;2023-07-24T06:51:31;151103.94;;;28.06;54.73
6938;BME280;40040;42.706;23.372;2023-07-24T06:53:59;151070.25;;;27.93;54.14
6938;BME280;40040;42.706;23.372;2023-07-24T06:56:26;151086.47;;;27.99;55.62
6938;BME280;40040;42.706;23.372;2023-07-24T06:58:53;151098.94;;;28.04;54.29
6938;BME280;40040;42.706;23.372;2023-07-24T07:01:20;151106.44;;;28.07;55.69
6938;BME280;40040;42.706;23.372;2023-07-24T07:03:46;151196.38;;;28.43;55.50
6938;BME280;40040;42.706;23.372;2023-07-24T07:06:13;151291.38;;;28.82;54.76
6938;BME280;40040;42.706;23.372;2023-07-24T07:08:40;151415.13;;;29.31;52.10
6938;BME280;40040;42.706;23.372;2023-07-24T07:11:08;151478.91;;;29.57;51.70
6938;BME280;40040;42.706;23.372;2023-07-24T07:13:35;151505.16;;;29.67;51.16
6938;BME280;40040;42.706;23.372;2023-07-24T07:16:02;151590.19;;;30.02;50.70
6938;BME280;40040;42.706;23.372;2023-07-24T07:18:29;151655.25;;;30.28;49.92
6938;BME280;40040;42.706;23.372;2023-07-24T07:20:56;151689.00;;;30.41;49.06
6938;BME280;40040;42.706;23.372;2023-07-24T07:23:23;151825.41;;;30.96;47.56
6938;BME280;40040;42.706;23.372;2023-07-24T07:25:50;151844.16;;;31.04;47.52
6938;BME280;40040;42.706;23.372;2023-07-24T07:28:19;151871.69;;;31.15;46.84
6938;BME280;40040;42.706;23.372;2023-07-24T07:30:45;151879.19;;;31.18;46.36
6938;BME280;40040;42.706;23.372;2023-07-24T07:33:12;151914.22;;;31.32;45.89
6938;BME280;40040;42.706;23.372;2023-07-24T07:35:39;151961.81;;;31.51;44.93
6938;BME280;40040;42.706;23.372;2023-07-24T07:38:06;151960.59;;;31.50;44.95
6938;BME280;40040;42.706;23.372;2023-07-24T07:40:33;151956.81;;;31.49;45.07
6938;BME280;40040;42.706;23.372;2023-07-24T07:43:00;151991.84;;;31.63;44.50
6938;BME280;40040;42.706;23.372;2023-07-24T07:45:28;152040.66;;;31.82;43.67
6938;BME280;40040;42.706;23.372;2023-07-24T07:47:54;151915.47;;;31.32;43.33
6938;BME280;40040;42.706;23.372;2023-07-24T07:50:21;151881.72;;;31.19;44.32
6938;BME280;40040;42.706;23.372;2023-07-24T07:52:49;151914.22;;;31.32;43.29
6938;BME280;40040;42.706;23.372;2023-07-24T07:55:16;151960.59;;;31.50;42.78
6938;BME280;40040;42.706;23.372;2023-07-24T07:57:43;151996.84;;;31.65;41.70
6938;BME280;40040;42.706;23.372;2023-07-24T08:00:11;151995.63;;;31.64;44.33
6938;BME280;40040;42.706;23.372;2023-07-24T08:02:39;151871.69;;;31.15;44.50
6938;BME280;40040;42.706;23.372;2023-07-24T08:05:07;151804.16;;;30.87;43.07
6938;BME280;40040;42.706;23.372;2023-07-24T08:07:34;151759.06;;;30.69;44.67
6938;BME280;40040;42.706;23.372;2023-07-24T08:10:01;151746.56;;;30.64;44.19
6938;BME280;40040;42.706;23.372;2023-07-24T08:12:28;151766.56;;;30.72;43.74
6938;BME280;40040;42.706;23.372;2023-07-24T08:14:55;151859.19;;;31.10;41.59
6938;BME280;40040;42.706;23.372;2023-07-24T08:17:22;151984.34;;;31.60;41.58
6938;BME280;40040;42.706;23.372;2023-07-24T08:19:50;152049.44;;;31.86;41.70
6938;BME280;40040;42.706;23.372;2023-07-24T08:22:17;152087.06;;;32.01;41.09
6938;BME280;40040;42.706;23.372;2023-07-24T08:24:45;152175.91;;;32.37;40.58
6938;BME280;40040;42.706;23.372;2023-07-24T08:27:12;152216.03;;;32.53;41.37
6938;BME280;40040;42.706;23.372;2023-07-24T08:29:39;152157.13;;;32.29;40.73
6938;BME280;40040;42.706;23.372;2023-07-24T08:32:06;152135.84;;;32.21;40.75
6938;BME280;40040;42.706;23.372;2023-07-24T08:34:33;152197.25;;;32.45;40.50
6938;BME280;40040;42.706;23.372;2023-07-24T08:37:01;152332.53;;;32.99;38.76
6938;BME280;40040;42.706;23.372;2023-07-24T08:39:28;152382.66;;;33.20;38.77
6938;BME280;40040;42.706;23.372;2023-07-24T08:41:54;152442.84;;;33.44;38.75
6938;BME280;40040;42.706;23.372;2023-07-24T08:44:25;152522.97;;;33.76;37.46
6938;BME280;40040;42.706;23.372;2023-07-24T08:46:56;152593.22;;;34.04;36.52
6938;BME280;40040;42.706;23.372;2023-07-24T08:49:24;152673.44;;;34.36;36.54
6938;BME280;40040;42.706;23.372;2023-07-24T08:51:53;152753.69;;;34.68;35.64
6938;BME280;40040;42.706;23.372;2023-07-24T08:54:22;152896.66;;;35.26;34.45
6938;BME280;40040;42.706;23.372;2023-07-24T08:56:50;153034.69;;;35.81;33.26
6938;BME280;40040;42.706;23.372;2023-07-24T08:59:17;153145.09;;;36.25;32.68
6938;BME280;40040;42.706;23.372;2023-07-24T09:01:44;153238.00;;;36.62;32.95
6938;BME280;40040;42.706;23.372;2023-07-24T09:04:11;153335.97;;;37.01;32.20
6938;BME280;40040;42.706;23.372;2023-07-24T09:06:38;153426.38;;;37.38;31.19
6938;BME280;40040;42.706;23.372;2023-07-24T09:09:12;153371.09;;;37.15;30.44
6938;BME280;40040;42.706;23.372;2023-07-24T09:11:47;153091.19;;;36.03;32.40
6938;BME280;40040;42.706;23.372;2023-07-24T09:14:20;152935.56;;;35.41;34.64
6938;BME280;40040;42.706;23.372;2023-07-24T09:16:47;152982.00;;;35.60;34.29
6938;BME280;40040;42.706;23.372;2023-07-24T09:19:17;153102.44;;;36.08;34.36
6938;BME280;40040;42.706;23.372;2023-07-24T09:21:44;153200.38;;;36.47;33.21
6938;BME280;40040;42.706;23.372;2023-07-24T09:24:12;153271.88;;;36.76;32.02
6938;BME280;40040;42.706;23.372;2023-07-24T09:26:58;153335.97;;;37.01;31.63
6938;BME280;40040;42.706;23.372;2023-07-24T09:29:30;153481.59;;;37.60;31.59
6938;BME280;40040;42.706;23.372;2023-07-24T09:31:58;153551.94;;;37.88;30.79
6938;BME280;40040;42.706;23.372;2023-07-24T09:34:25;153663.75;;;38.33;30.13
6938;BME280;40040;42.706;23.372;2023-07-24T09:36:52;153720.25;;;38.55;30.16
6938;BME280;40040;42.706;23.372;2023-07-24T09:39:23;153755.47;;;38.69;29.42
6938;BME280;40040;42.706;23.372;2023-07-24T09:41:49;153824.63;;;38.97;29.81
6938;BME280;40040;42.706;23.372;2023-07-24T09:44:18;153883.69;;;39.20;28.74
6938;BME280;40040;42.706;23.372;2023-07-24T09:46:45;153851.00;;;39.07;28.82
6938;BME280;40040;42.706;23.372;2023-07-24T09:49:12;153740.44;;;38.63;29.64
6938;BME280;40040;42.706;23.372;2023-07-24T09:51:39;153776.81;;;38.78;29.89
6938;BME280;40040;42.706;23.372;2023-07-24T09:54:09;153741.69;;;38.64;29.62
6938;BME280;40040;42.706;23.372;2023-07-24T09:56:40;153755.47;;;38.69;29.76
6938;BME280;40040;42.706;23.372;2023-07-24T09:59:09;153619.75;;;38.15;30.57
6938;BME280;40040;42.706;23.372;2023-07-24T10:01:38;153562.00;;;37.92;29.99
6938;BME280;40040;42.706;23.372;2023-07-24T10:04:07;153536.91;;;37.82;30.22
6938;BME280;40040;42.706;23.372;2023-07-24T10:06:34;153609.72;;;38.11;30.92
6938;BME280;40040;42.706;23.372;2023-07-24T10:09:01;153677.56;;;38.38;29.80
6938;BME280;40040;42.706;23.372;2023-07-24T10:11:29;153703.94;;;38.49;30.59
6938;BME280;40040;42.706;23.372;2023-07-24T10:13:55;153856.03;;;39.09;29.33
6938;BME280;40040;42.706;23.372;2023-07-24T10:16:22;153959.16;;;39.51;29.15
6938;BME280;40040;42.706;23.372;2023-07-24T10:18:51;154162.84;;;40.32;27.92
6938;BME280;40040;42.706;23.372;2023-07-24T10:21:17;154234.50;;;40.61;28.36
6938;BME280;40040;42.706;23.372;2023-07-24T10:23:46;154220.66;;;40.55;27.84
6938;BME280;40040;42.706;23.372;2023-07-24T10:26:13;154258.38;;;40.70;28.08
6938;BME280;40040;42.706;23.372;2023-07-24T10:28:40;154288.59;;;40.82;27.79
6938;BME280;40040;42.706;23.372;2023-07-24T10:31:08;154267.22;;;40.74;27.62
6938;BME280;40040;42.706;23.372;2023-07-24T10:33:45;154223.16;;;40.56;27.58
6938;BME280;40040;42.706;23.372;2023-07-24T10:36:17;154193.00;;;40.44;28.16
6938;BME280;40040;42.706;23.372;2023-07-24T10:38:46;154289.88;;;40.83;27.27
6938;BME280;40040;42.706;23.372;2023-07-24T10:41:13;154170.34;;;40.35;27.79
6938;BME280;40040;42.706;23.372;2023-07-24T10:43:43;154015.69;;;39.73;28.85
6938;BME280;40040;42.706;23.372;2023-07-24T10:46:11;153955.38;;;39.49;29.08
6938;BME280;40040;42.706;23.372;2023-07-24T10:48:41;153883.69;;;39.20;29.50
6938;BME280;40040;42.706;23.372;2023-07-24T10:51:09;153873.63;;;39.16;29.30
6938;BME280;40040;42.706;23.372;2023-07-24T10:53:37;153936.47;;;39.42;29.78
6938;BME280;40040;42.706;23.372;2023-07-24T10:56:05;154042.09;;;39.84;28.99
6938;BME280;40040;42.706;23.372;2023-07-24T10:58:33;154151.50;;;40.27;27.85
6938;BME280;40040;42.706;23.372;2023-07-24T11:01:03;154062.22;;;39.92;28.73
6938;BME280;40040;42.706;23.372;2023-07-24T11:03:31;153949.03;;;39.47;29.53
6938;BME280;40040;42.706;23.372;2023-07-24T11:05:58;153921.38;;;39.35;29.44
6938;BME280;40040;42.706;23.372;2023-07-24T11:08:25;153915.09;;;39.33;29.53
6938;BME280;40040;42.706;23.372;2023-07-24T11:10:55;153957.88;;;39.50;29.44
6938;BME280;40040;42.706;23.372;2023-07-24T11:13:25;154011.94;;;39.72;29.03
6938;BME280;40040;42.706;23.372;2023-07-24T11:15:53;153830.88;;;38.99;29.83
6938;BME280;40040;42.706;23.372;2023-07-24T11:18:21;153804.47;;;38.89;30.00
6938;BME280;40040;42.706;23.372;2023-07-24T11:20:53;153891.22;;;39.23;29.48
6938;BME280;40040;42.706;23.372;2023-07-24T11:23:21;153921.38;;;39.35;30.75
6938;BME280;40040;42.706;23.372;2023-07-24T11:25:50;153857.31;;;39.10;30.65
6938;BME280;40040;42.706;23.372;2023-07-24T11:28:18;153766.81;;;38.74;31.35
6938;BME280;40040;42.706;23.372;2023-07-24T11:30:46;153818.31;;;38.94;30.34
6938;BME280;40040;42.706;23.372;2023-07-24T11:33:15;153883.69;;;39.20;29.67
6938;BME280;40040;42.706;23.372;2023-07-24T11:35:44;153854.81;;;39.09;30.68
6938;BME280;40040;42.706;23.372;2023-07-24T11:38:11;153768.03;;;38.74;30.82
6938;BME280;40040;42.706;23.372;2023-07-24T11:40:39;153722.81;;;38.56;31.87
6938;BME280;40040;42.706;23.372;2023-07-24T11:43:16;153808.25;;;38.90;30.41
6938;BME280;40040;42.706;23.372;2023-07-24T11:45:45;153877.38;;;39.18;30.08
6938;BME280;40040;42.706;23.372;2023-07-24T11:48:14;153780.63;;;38.79;29.12
6938;BME280;40040;42.706;23.372;2023-07-24T11:50:42;153786.91;;;38.82;29.63
6938;BME280;40040;42.706;23.372;2023-07-24T11:53:18;153717.78;;;38.54;30.36
6938;BME280;40040;42.706;23.372;2023-07-24T11:55:45;153657.50;;;38.30;29.40
6938;BME280;40040;42.706;23.372;2023-07-24T11:58:14;153614.75;;;38.13;29.25
6938;BME280;40040;42.706;23.372;2023-07-24T12:00:41;153496.66;;;37.66;29.83
6938;BME280;40040;42.706;23.372;2023-07-24T12:03:10;153412.56;;;37.32;29.83
6938;BME280;40040;42.706;23.372;2023-07-24T12:05:40;153432.63;;;37.40;30.61
6938;BME280;40040;42.706;23.372;2023-07-24T12:08:07;153450.19;;;37.47;31.27
6938;BME280;40040;42.706;23.372;2023-07-24T12:10:36;153440.19;;;37.43;32.40
6938;BME280;40040;42.706;23.372;2023-07-24T12:13:04;153446.44;;;37.46;30.88
6938;BME280;40040;42.706;23.372;2023-07-24T12:15:31;153484.13;;;37.61;30.74
6938;BME280;40040;42.706;23.372;2023-07-24T12:17:59;153423.81;;;37.37;32.03
6938;BME280;40040;42.706;23.372;2023-07-24T12:20:28;153461.53;;;37.52;31.10
6938;BME280;40040;42.706;23.372;2023-07-24T12:22:55;153461.53;;;37.52;31.57
6938;BME280;40040;42.706;23.372;2023-07-24T12:25:22;153420.06;;;37.35;32.11
6938;BME280;40040;42.706;23.372;2023-07-24T12:27:49;153396.19;;;37.25;31.74
6938;BME280;40040;42.706;23.372;2023-07-24T12:30:16;153401.28;;;37.28;32.12
6938;BME280;40040;42.706;23.372;2023-07-24T12:32:43;153406.25;;;37.30;31.63
6938;BME280;40040;42.706;23.372;2023-07-24T12:35:10;153394.94;;;37.25;31.40
6938;BME280;40040;42.706;23.372;2023-07-24T12:37:38;153381.09;;;37.19;31.68
6938;BME280;40040;42.706;23.372;2023-07-24T12:40:07;153345.97;;;37.05;31.52
6938;BME280;40040;42.706;23.372;2023-07-24T12:42:34;153243.03;;;36.64;32.79
6938;BME280;40040;42.706;23.372;2023-07-24T12:45:02;153169.00;;;36.35;31.98
6938;BME280;40040;42.706;23.372;2023-07-24T12:47:29;153165.19;;;36.33;32.39
6938;BME280;40040;42.706;23.372;2023-07-24T12:49:56;153171.50;;;36.36;32.33
6938;BME280;40040;42.706;23.372;2023-07-24T12:52:24;153172.75;;;36.36;32.59